Time;durP1;ratioP1;P1;durP2;ratioP2;P2;SDS_P1;SDS_P2;PMS_P1;PMS_P2;Temp;Humidity;BMP_temperature;BMP_pressure;BME280_temperature;BME280_humidity;BME280_pressure;Samples;Min_cycle;Max_cycle;Signal;HPM_P1;HPM_P2
2021/09/29 00:01:16;;;;;;;12.43;2.40;;;;;;;10.80;100.00;101663.06;5049615;28;20063;-73
2021/09/29 00:03:41;;;;;;;10.07;2.93;;;;;;;10.70;100.00;101656.84;5050331;28;20556;-73
2021/09/29 00:06:07;;;;;;;7.07;2.00;;;;;;;10.67;100.00;101655.31;5049590;28;20028;-73
2021/09/29 00:08:33;;;;;;;9.73;2.50;;;;;;;10.63;100.00;101647.72;5070275;28;20090;-73
2021/09/29 00:10:58;;;;;;;14.02;2.13;;;;;;;10.57;100.00;101657.16;5051606;28;20044;-73
2021/09/29 00:13:25;;;;;;;9.97;2.20;;;;;;;10.55;100.00;101649.25;5070348;28;20120;-73
2021/09/29 00:15:52;;;;;;;10.00;2.35;;;;;;;10.51;100.00;101658.56;5069806;28;20115;-73
2021/09/29 00:18:19;;;;;;;6.63;2.10;;;;;;;10.57;100.00;101652.66;5069271;28;20024;-73
2021/09/29 00:20:45;;;;;;;8.45;2.50;;;;;;;10.56;100.00;101640.28;5069679;28;20489;-73
2021/09/29 00:23:10;;;;;;;8.80;2.60;;;;;;;10.52;100.00;101641.53;5052406;28;20044;-73
2021/09/29 00:25:36;;;;;;;13.83;2.97;;;;;;;10.51;100.00;101636.34;5068437;28;20765;-73
2021/09/29 00:28:02;;;;;;;8.35;2.90;;;;;;;10.49;100.00;101633.81;5052512;28;20046;-73
2021/09/29 00:30:31;;;;;;;9.15;4.20;;;;;;;10.40;100.00;101633.81;5068471;28;20059;-73
2021/09/29 00:33:01;;;;;;;10.82;2.50;;;;;;;10.33;100.00;101620.19;5069725;28;20091;-73
2021/09/29 00:35:27;;;;;;;4.57;2.30;;;;;;;10.38;100.00;101627.78;5051828;28;20032;-73
2021/09/29 00:37:53;;;;;;;6.10;2.05;;;;;;;10.37;100.00;101626.91;5069676;28;20029;-73
2021/09/29 00:40:18;;;;;;;10.18;2.72;;;;;;;10.35;100.00;101623.56;5069347;28;20126;-73
2021/09/29 00:42:43;;;;;;;8.23;2.00;;;;;;;10.42;100.00;101614.00;5068487;28;20028;-73
2021/09/29 00:45:09;;;;;;;9.00;2.10;;;;;;;10.37;100.00;101608.22;5069516;28;20071;-73
2021/09/29 00:47:36;;;;;;;8.77;1.73;;;;;;;10.37;100.00;101607.38;5069216;28;20048;-73
2021/09/29 00:50:04;;;;;;;10.30;2.25;;;;;;;10.33;100.00;101610.34;5069355;28;20036;-73
2021/09/29 00:52:32;;;;;;;7.05;1.70;;;;;;;10.34;100.00;101606.69;5069476;28;20074;-73
2021/09/29 00:54:58;;;;;;;7.70;2.10;;;;;;;10.36;100.00;101606.56;5069183;28;20040;-73
2021/09/29 00:57:23;;;;;;;9.90;2.77;;;;;;;10.35;100.00;101594.22;5069177;28;20036;-73
2021/09/29 00:59:50;;;;;;;7.75;1.73;;;;;;;10.33;100.00;101590.81;5069071;28;20143;-73
2021/09/29 01:02:16;;;;;;;10.02;2.10;;;;;;;10.33;100.00;101590.81;5068938;28;20057;-73
2021/09/29 01:04:42;;;;;;;;;;;;;;;10.30;100.00;101575.06;5068807;28;20039;-73
2021/09/29 01:07:27;;;;;;;;;;;;;;;10.25;100.00;101590.63;5051619;28;20265;-73
2021/09/29 01:10:03;;;;;;;9.25;3.05;;;;;;;10.33;100.00;101577.47;5050254;28;19912;-73
2021/09/29 01:12:52;;;;;;;11.38;2.72;;;;;;;10.26;100.00;101579.00;5068102;28;20352;-73
2021/09/29 01:15:23;;;;;;;4.75;1.85;;;;;;;10.22;100.00;101572.25;5051165;28;20055;-73
2021/09/29 01:17:54;;;;;;;10.15;2.00;;;;;;;10.20;100.00;101575.03;5050497;28;20512;-73
2021/09/29 01:20:33;;;;;;;9.18;1.92;;;;;;;10.25;100.00;101574.63;5067782;28;20036;-73
2021/09/29 01:23:08;;;;;;;7.95;2.10;;;;;;;10.24;100.00;101565.78;5068838;28;20044;-73
2021/09/29 01:25:48;;;;;;;10.57;2.90;;;;;;;10.24;100.00;101548.94;5068735;28;20029;-73
2021/09/29 01:28:18;;;;;;;10.27;2.30;;;;;;;10.20;100.00;101545.69;5068813;28;20367;-73
2021/09/29 01:30:44;;;;;;;16.60;3.78;;;;;;;10.20;100.00;101553.69;5068386;28;20070;-73
2021/09/29 01:33:11;;;;;;;9.90;2.15;;;;;;;10.15;100.00;101551.44;5068559;28;20101;-73
2021/09/29 01:35:37;;;;;;;8.93;2.20;;;;;;;10.07;100.00;101540.66;5067421;28;20044;-73
2021/09/29 01:38:04;;;;;;;9.90;1.67;;;;;;;10.11;100.00;101552.72;5068194;28;20052;-73
2021/09/29 01:40:29;;;;;;;6.63;1.60;;;;;;;10.14;100.00;101555.09;5049724;28;20064;-73
2021/09/29 01:42:55;;;;;;;7.40;1.60;;;;;;;10.17;100.00;101558.50;5068702;28;20098;-73
2021/09/29 01:45:20;;;;;;;6.60;1.70;;;;;;;10.21;100.00;101554.53;5068382;28;20293;-74
2021/09/29 01:47:48;;;;;;;11.60;3.40;;;;;;;10.22;100.00;101540.22;5068101;28;20040;-73
2021/09/29 01:50:17;;;;;;;11.43;3.13;;;;;;;10.17;100.00;101531.81;5067259;28;20113;-73
2021/09/29 01:52:45;;;;;;;5.72;2.35;;;;;;;10.13;100.00;101528.56;5068195;28;20024;-74
2021/09/29 01:55:17;;;;;;;5.85;1.88;;;;;;;10.20;100.00;101536.84;5067156;28;20364;-73
2021/09/29 01:57:47;;;;;;;6.90;1.90;;;;;;;10.20;100.00;101526.19;5068578;28;20544;-73
2021/09/29 02:00:14;;;;;;;8.13;2.45;;;;;;;10.21;100.00;101517.16;5067801;28;20195;-73
2021/09/29 02:02:40;;;;;;;;;;;;;;;10.16;100.00;101506.94;5050792;28;20036;-73
2021/09/29 02:05:05;;;;;;;;;;;;;;;10.11;100.00;101504.69;5050125;28;19924;-73
2021/09/29 02:07:30;;;;;;;;;;;;;;;10.17;100.00;101505.13;5068550;28;19995;-73
2021/09/29 02:09:56;;;;;;;4.13;1.57;;;;;;;10.14;100.00;101503.56;5067324;28;19916;-73
2021/09/29 02:12:21;;;;;;;13.13;1.70;;;;;;;10.14;100.00;101500.91;5067946;28;20043;-73
2021/09/29 02:14:47;;;;;;;8.48;1.83;;;;;;;10.18;100.00;101502.28;5050176;28;20040;-73
2021/09/29 02:17:13;;;;;;;7.70;1.67;;;;;;;10.25;100.00;101498.06;5068145;28;20017;-73
2021/09/29 02:19:38;;;;;;;8.60;1.63;;;;;;;10.24;100.00;101500.91;5068621;28;20149;-73
2021/09/29 02:22:04;;;;;;;18.77;4.40;;;;;;;10.30;100.00;101482.53;5068001;28;20068;-73
2021/09/29 02:24:30;;;;;;;5.97;1.47;;;;;;;10.24;100.00;101484.88;5076889;23;20073;-69
2021/09/29 02:26:55;;;;;;;12.13;2.53;;;;;;;10.28;99.84;101487.16;5094857;23;20043;-73
2021/09/29 02:29:20;;;;;;;7.87;1.33;;;;;;;10.23;100.00;101488.53;5086151;28;20666;-73
2021/09/29 02:31:46;;;;;;;6.43;2.23;;;;;;;10.32;100.00;101490.38;5087452;28;20024;-73
2021/09/29 02:34:12;;;;;;;8.47;1.77;;;;;;;10.33;100.00;101481.41;5087551;28;20431;-73
2021/09/29 02:36:38;;;;;;;10.98;1.83;;;;;;;10.28;99.84;101471.16;5087809;28;20352;-73
2021/09/29 02:39:04;;;;;;;6.75;2.65;;;;;;;10.33;99.87;101479.56;5087536;28;20035;-73
2021/09/29 02:41:30;;;;;;;;;;;;;;;10.26;99.83;101474.91;5088310;28;20394;-73
2021/09/29 02:43:56;;;;;;;;;;;;;;;10.24;100.00;101484.88;5070224;28;19916;-73
2021/09/29 02:46:21;;;;;;;;;;;;;;;10.24;100.00;101474.22;5069872;28;19941;-73
2021/09/29 02:48:46;;;;;;;8.33;2.50;;;;;;;10.12;100.00;101477.03;5087428;28;19916;-73
2021/09/29 02:51:12;;;;;;;10.18;1.90;;;;;;;10.11;100.00;101467.34;5069653;28;20456;-73
2021/09/29 02:53:38;;;;;;;9.80;3.17;;;;;;;10.12;100.00;101469.03;5069881;28;20028;-73
2021/09/29 02:56:04;;;;;;;7.70;2.40;;;;;;;10.10;100.00;101468.31;5069260;28;20043;-73
2021/09/29 02:58:30;;;;;;;5.57;1.60;;;;;;;10.07;100.00;101463.28;5087583;28;20039;-73
2021/09/29 03:00:59;;;;;;;7.88;2.00;;;;;;;10.10;100.00;101473.66;5086944;28;20040;-74
2021/09/29 03:03:25;;;;;;;10.55;1.85;;;;;;;10.07;100.00;101468.59;5087504;28;20036;-73
2021/09/29 03:05:51;;;;;;;9.02;1.80;;;;;;;10.12;100.00;101470.84;5086508;28;20038;-73
2021/09/29 03:08:17;;;;;;;5.63;1.95;;;;;;;10.05;100.00;101475.91;5087736;28;20028;-73
2021/09/29 03:10:43;;;;;;;6.07;1.60;;;;;;;10.01;100.00;101463.00;5086300;28;20036;-73
2021/09/29 03:13:11;;;;;;;9.55;1.88;;;;;;;10.01;100.00;101466.50;5069413;28;20059;-73
2021/09/29 03:15:37;;;;;;;12.65;2.70;;;;;;;9.97;100.00;101462.41;5069262;28;20019;-73
2021/09/29 03:18:03;;;;;;;10.45;2.20;;;;;;;9.96;100.00;101468.75;5087315;28;20105;-73
2021/09/29 03:20:30;;;;;;;6.03;2.20;;;;;;;10.00;100.00;101467.50;5086836;28;20032;-73
2021/09/29 03:22:56;;;;;;;5.28;1.70;;;;;;;9.97;100.00;101456.25;5087278;28;20110;-73
2021/09/29 03:25:23;;;;;;;7.30;2.75;;;;;;;9.94;100.00;101452.03;5087028;28;20085;-73
2021/09/29 03:27:49;;;;;;;8.57;1.92;;;;;;;9.91;100.00;101457.66;5069095;28;20040;-73
2021/09/29 03:30:15;;;;;;;6.45;1.90;;;;;;;9.89;100.00;101454.28;5086927;28;20028;-73
2021/09/29 03:32:42;;;;;;;;;;;;;;;9.87;100.00;101457.09;5087449;28;20060;-73
2021/09/29 03:35:12;;;;;;;10.10;2.13;;;;;;;9.84;100.00;101459.22;5069302;28;20006;-73
2021/09/29 03:37:39;;;;;;;13.55;2.35;;;;;;;9.82;100.00;101451.34;5069408;28;20077;-73
2021/09/29 03:40:07;;;;;;;5.53;2.63;;;;;;;9.79;100.00;101448.97;5086878;28;20062;-73
2021/09/29 03:42:32;;;;;;;5.97;2.08;;;;;;;9.73;100.00;101449.50;5090018;28;20024;-73
2021/09/29 03:44:57;;;;;;;10.57;2.10;;;;;;;9.71;100.00;101438.97;5089970;28;20036;-73
2021/09/29 03:47:23;;;;;;;8.17;2.30;;;;;;;9.76;100.00;101443.06;5073064;28;20036;-73
2021/09/29 03:49:48;;;;;;;13.20;2.90;;;;;;;9.70;100.00;101439.13;5090699;28;20313;-73
2021/09/29 03:52:14;;;;;;;9.03;2.53;;;;;;;9.70;100.00;101437.31;5090864;28;20064;-73
2021/09/29 03:54:39;;;;;;;15.90;2.38;;;;;;;9.69;100.00;101438.31;5090892;28;20288;-73
2021/09/29 03:57:05;;;;;;;10.40;2.47;;;;;;;9.78;100.00;101425.09;5072821;28;20119;-73
2021/09/29 03:59:31;;;;;;;12.30;2.03;;;;;;;9.76;100.00;101421.72;5072599;28;20098;-73
2021/09/29 04:01:57;;;;;;;9.60;2.20;;;;;;;9.83;100.00;101422.84;5072770;28;20123;-73
2021/09/29 04:04:23;;;;;;;5.78;1.52;;;;;;;9.83;100.00;101412.16;5090497;28;20032;-73
2021/09/29 04:06:48;;;;;;;9.17;2.77;;;;;;;9.87;100.00;101401.09;5072627;28;20060;-73
2021/09/29 04:09:14;;;;;;;9.43;1.90;;;;;;;9.86;100.00;101394.06;5089725;28;20353;-73
2021/09/29 04:11:40;;;;;;;9.83;2.33;;;;;;;9.79;100.00;101395.63;5073096;28;20034;-73
2021/09/29 04:14:06;;;;;;;6.85;1.75;;;;;;;9.78;100.00;101396.59;5090551;28;20452;-73
2021/09/29 04:16:32;;;;;;;10.35;3.60;;;;;;;9.82;100.00;101398.00;5072617;28;20039;-73
2021/09/29 04:18:58;;;;;;;13.35;2.88;;;;;;;9.84;100.00;101384.53;5089993;28;20484;-73
2021/09/29 04:21:24;;;;;;;5.10;1.80;;;;;;;9.83;100.00;101380.16;5090374;28;20044;-73
2021/09/29 04:23:49;;;;;;;18.90;3.13;;;;;;;9.83;100.00;101375.69;5090229;28;20503;-73
2021/09/29 04:26:15;;;;;;;7.60;2.05;;;;;;;9.85;100.00;101378.22;5072417;28;20048;-73
2021/09/29 04:28:41;;;;;;;3.13;2.15;;;;;;;9.85;100.00;101372.88;5071971;28;20044;-73
2021/09/29 04:31:06;;;;;;;15.23;2.42;;;;;;;9.82;100.00;101368.66;5072560;28;20123;-73
2021/09/29 04:33:32;;;;;;;12.38;2.22;;;;;;;9.87;100.00;101369.06;5090444;28;20039;-73
2021/09/29 04:35:58;;;;;;;14.50;2.10;;;;;;;9.85;100.00;101364.88;5089772;28;20039;-73
2021/09/29 04:38:23;;;;;;;6.03;2.47;;;;;;;9.79;100.00;101360.97;5072197;28;20413;-73
2021/09/29 04:40:49;;;;;;;11.50;2.13;;;;;;;9.84;100.00;101360.53;5071971;28;20028;-73
2021/09/29 04:43:15;;;;;;;7.68;2.00;;;;;;;9.83;100.00;101359.69;5072192;28;20032;-73
2021/09/29 04:45:41;;;;;;;11.23;2.90;;;;;;;9.82;100.00;101357.16;5089842;28;20039;-73
2021/09/29 04:48:07;;;;;;;11.73;3.05;;;;;;;9.90;100.00;101359.94;5072068;28;20046;-73
2021/09/29 04:50:34;;;;;;;6.35;1.70;;;;;;;9.89;100.00;101353.78;5071786;28;20040;-73
2021/09/29 04:52:59;;;;;;;;;;;;;;;9.92;100.00;101357.97;5089369;28;20042;-73
2021/09/29 04:55:25;;;;;;;5.15;1.70;;;;;;;9.83;100.00;101354.38;5089621;28;19916;-73
2021/09/29 04:57:52;;;;;;;4.95;2.10;;;;;;;9.77;100.00;101354.09;5071919;28;20082;-73
2021/09/29 05:00:17;;;;;;;11.35;2.08;;;;;;;9.77;100.00;101357.59;5071589;28;20129;-73
2021/09/29 05:02:45;;;;;;;9.50;3.38;;;;;;;9.81;100.00;101356.34;5089690;28;20056;-73
2021/09/29 05:05:11;;;;;;;14.70;2.95;;;;;;;9.81;100.00;101350.13;5088861;28;20036;-73
2021/09/29 05:07:40;;;;;;;9.20;2.58;;;;;;;9.80;100.00;101354.63;5089720;28;20028;-73
2021/09/29 05:10:10;;;;;;;7.53;2.03;;;;;;;9.84;100.00;101350.69;5070940;28;20032;-73
2021/09/29 05:12:36;;;;;;;15.40;2.17;;;;;;;9.85;100.00;101340.88;5071937;28;20101;-73
2021/09/29 05:15:02;;;;;;;13.63;2.58;;;;;;;9.91;100.00;101343.81;5071548;28;20445;-73
2021/09/29 05:17:28;;;;;;;9.68;2.40;;;;;;;9.92;100.00;101337.47;5071643;28;20071;-73
2021/09/29 05:19:53;;;;;;;7.00;2.17;;;;;;;9.94;100.00;101340.84;5071454;28;20066;-73
2021/09/29 05:22:19;;;;;;;13.07;3.30;;;;;;;9.99;100.00;101345.75;5089460;28;20605;-73
2021/09/29 05:24:45;;;;;;;8.30;2.10;;;;;;;9.95;100.00;101336.38;5089078;28;20293;-73
2021/09/29 05:27:11;;;;;;;10.32;1.95;;;;;;;9.96;100.00;101329.22;5089493;28;20028;-73
2021/09/29 05:29:40;;;;;;;12.63;3.33;;;;;;;9.93;100.00;101333.00;5072430;28;20036;-73
2021/09/29 05:32:07;;;;;;;12.30;2.08;;;;;;;9.96;100.00;101340.72;5072322;28;20068;-73
2021/09/29 05:34:33;;;;;;;8.93;2.33;;;;;;;9.92;100.00;101336.63;5090271;28;20097;-73
2021/09/29 05:36:58;;;;;;;14.98;4.28;;;;;;;9.92;100.00;101336.63;5090254;28;20024;-73
2021/09/29 05:39:24;;;;;;;8.30;2.20;;;;;;;9.99;100.00;101332.41;5072226;28;20039;-73
2021/09/29 05:41:50;;;;;;;25.03;5.00;;;;;;;9.99;100.00;101332.41;5089753;28;20058;-73
2021/09/29 05:44:15;;;;;;;6.60;2.30;;;;;;;10.00;100.00;101327.94;5090009;28;20040;-73
2021/09/29 05:46:41;;;;;;;15.90;3.40;;;;;;;9.93;100.00;101333.84;5089653;28;20027;-72
2021/09/29 05:49:06;;;;;;;11.27;2.13;;;;;;;9.98;100.00;101333.41;5088764;28;20089;-72
2021/09/29 05:51:32;;;;;;;7.77;2.40;;;;;;;9.98;100.00;101330.75;5070849;28;20032;-73
2021/09/29 05:53:57;;;;;;;15.73;4.70;;;;;;;9.98;100.00;101333.41;5088843;28;20790;-72
2021/09/29 05:56:23;;;;;;;11.60;3.10;;;;;;;10.01;100.00;101322.44;5071381;28;20388;-73
2021/09/29 05:58:49;;;;;;;7.22;2.30;;;;;;;9.97;100.00;101313.03;5089603;28;20285;-73
2021/09/29 06:01:14;;;;;;;9.67;3.40;;;;;;;9.97;100.00;101313.03;5071588;28;20040;-73
2021/09/29 06:03:40;;;;;;;13.87;3.00;;;;;;;10.01;100.00;101316.28;5071923;28;20040;-73
2021/09/29 06:06:05;;;;;;;19.40;3.47;;;;;;;10.01;100.00;101316.28;5087970;28;20032;-73
2021/09/29 06:08:31;;;;;;;10.60;2.10;;;;;;;10.11;100.00;101317.94;5071903;28;20361;-73
2021/09/29 06:10:59;;;;;;;4.47;2.15;;;;;;;10.06;100.00;101306.84;5088753;28;20024;-73
2021/09/29 06:13:26;;;;;;;9.93;3.15;;;;;;;10.13;100.00;101313.25;5071745;28;20123;-73
2021/09/29 06:15:53;;;;;;;12.07;3.15;;;;;;;10.16;100.00;101296.16;5089182;28;20051;-73
2021/09/29 06:18:18;;;;;;;14.00;2.60;;;;;;;10.22;100.00;101310.72;5089433;28;20067;-73
2021/09/29 06:20:52;;;;;;;5.72;2.20;;;;;;;10.28;100.00;101299.47;5089102;28;20127;-73
2021/09/29 06:23:20;;;;;;;6.82;2.60;;;;;;;10.31;100.00;101291.19;5071482;28;20474;-73
2021/09/29 06:25:46;;;;;;;7.75;2.80;;;;;;;10.26;100.00;101291.59;5071205;28;20040;-72
2021/09/29 06:28:12;;;;;;;10.85;3.15;;;;;;;10.28;100.00;101291.47;5088968;28;20040;-72
2021/09/29 06:30:38;;;;;;;11.10;3.35;;;;;;;10.35;100.00;101289.91;5088123;28;20043;-72
2021/09/29 06:33:04;;;;;;;16.65;2.78;;;;;;;10.35;100.00;101282.75;5071201;28;20040;-73
2021/09/29 06:35:30;;;;;;;11.00;2.85;;;;;;;10.52;99.57;101296.28;5088965;28;20109;-73
2021/09/29 06:38:04;;;;;;;9.75;2.42;;;;;;;10.46;99.49;101288.88;5071051;28;20047;-73
2021/09/29 06:40:29;;;;;;;12.13;2.95;;;;;;;10.43;99.64;101279.31;5088660;28;20979;-73
2021/09/29 06:42:55;;;;;;;6.73;2.43;;;;;;;10.59;99.53;101288.53;5071120;28;20040;-72
2021/09/29 06:45:21;;;;;;;5.20;2.08;;;;;;;10.70;99.09;101277.63;5070975;28;20107;-73
2021/09/29 06:47:48;;;;;;;11.77;2.47;;;;;;;10.68;98.65;101274.28;5087847;28;20084;-73
2021/09/29 06:50:17;;;;;;;8.50;2.05;;;;;;;10.77;98.65;101276.06;5088649;28;20086;-73
2021/09/29 06:52:43;;;;;;;12.30;2.63;;;;;;;10.74;98.10;101276.34;5070718;28;20038;-72
2021/09/29 06:55:08;;;;;;;13.07;2.38;;;;;;;10.74;98.71;101279.00;5088366;28;20039;-73
2021/09/29 06:57:35;;;;;;;12.15;2.40;;;;;;;10.82;97.82;101281.78;5070367;28;20031;-72
2021/09/29 07:00:01;;;;;;;8.10;2.45;;;;;;;10.95;98.08;101270.72;5086991;28;20097;-73
2021/09/29 07:02:26;;;;;;;6.68;3.15;;;;;;;10.92;97.41;101281.72;5069298;28;20039;-73
2021/09/29 07:04:52;;;;;;;9.23;1.97;;;;;;;10.85;97.33;101277.97;5087813;28;20032;-73
2021/09/29 07:07:17;;;;;;;18.63;3.57;;;;;;;10.88;97.95;101277.66;5088450;28;20032;-72
2021/09/29 07:09:43;;;;;;;7.30;2.65;;;;;;;10.95;97.67;101287.56;5087910;28;20111;-73
2021/09/29 07:12:08;;;;;;;9.07;2.10;;;;;;;10.96;97.51;101272.41;5088519;28;20345;-72
2021/09/29 07:14:34;;;;;;;9.43;1.97;;;;;;;11.04;97.13;101276.97;5088255;28;20028;-73
2021/09/29 07:17:00;;;;;;;11.38;2.63;;;;;;;11.16;97.15;101279.25;5069560;28;20036;-73
2021/09/29 07:19:27;;;;;;;13.18;2.85;;;;;;;11.22;96.86;101277.81;5070257;28;20032;-73
2021/09/29 07:21:52;;;;;;;11.32;2.60;;;;;;;11.13;97.03;101273.38;5088355;28;20039;-73
2021/09/29 07:24:18;;;;;;;13.77;2.55;;;;;;;11.15;97.36;101276.75;5070103;28;20040;-73
2021/09/29 07:26:43;;;;;;;7.10;1.90;;;;;;;11.18;96.77;101276.44;5070404;28;20115;-73
2021/09/29 07:29:10;;;;;;;9.33;1.80;;;;;;;11.17;97.71;101280.13;5087880;28;20064;-73
2021/09/29 07:31:37;;;;;;;9.27;2.10;;;;;;;11.20;97.11;101274.47;5070559;28;20063;-73
2021/09/29 07:34:03;;;;;;;10.95;2.75;;;;;;;11.37;97.20;101262.91;5070011;28;20036;-73
2021/09/29 07:36:29;;;;;;;9.43;2.20;;;;;;;11.33;97.45;101264.22;5070646;28;20036;-73
2021/09/29 07:38:54;;;;;;;10.05;2.33;;;;;;;11.58;97.23;101264.38;5069929;28;20039;-73
2021/09/29 07:41:19;;;;;;;13.03;2.83;;;;;;;11.65;96.40;101262.75;5088203;28;20133;-73
2021/09/29 07:43:45;;;;;;;14.17;2.60;;;;;;;11.66;95.57;101261.78;5070602;28;20129;-73
2021/09/29 07:46:11;;;;;;;12.48;2.10;;;;;;;11.65;95.64;101262.75;5069971;28;20040;-73
2021/09/29 07:48:36;;;;;;;11.13;2.77;;;;;;;11.65;95.59;101257.41;5070276;28;20028;-73
2021/09/29 07:51:02;;;;;;;7.50;2.47;;;;;;;11.58;95.80;101256.38;5087723;28;20028;-73
2021/09/29 07:53:28;;;;;;;10.25;3.08;;;;;;;11.71;95.48;101254.13;5088177;28;20028;-73
2021/09/29 07:55:55;;;;;;;11.73;3.20;;;;;;;11.96;95.70;101249.78;5086681;28;20480;-73
2021/09/29 07:58:25;;;;;;;13.13;2.63;;;;;;;11.89;94.20;101238.03;5053307;28;20094;-73
2021/09/29 08:00:51;;;;;;;12.63;2.83;;;;;;;12.05;93.87;101234.59;5069734;28;20036;-72
2021/09/29 08:03:16;;;;;;;12.90;2.85;;;;;;;12.09;93.25;101240.47;5070226;28;20093;-73
2021/09/29 08:05:42;;;;;;;11.85;2.15;;;;;;;12.31;92.89;101231.03;5087767;28;20024;-73
2021/09/29 08:08:08;;;;;;;11.38;2.60;;;;;;;12.34;93.34;101236.91;5087943;28;20101;-73
2021/09/29 08:10:34;;;;;;;5.63;3.10;;;;;;;12.41;92.98;101242.47;5069233;28;20101;-73
2021/09/29 08:13:00;;;;;;;14.80;2.72;;;;;;;12.52;92.76;101220.69;5087889;28;20035;-72
2021/09/29 08:15:27;;;;;;;6.93;2.83;;;;;;;12.78;91.03;101217.06;5069746;28;20039;-73
2021/09/29 08:17:55;;;;;;;11.55;2.92;;;;;;;12.74;90.59;101215.75;5070093;28;20040;-72
2021/09/29 08:20:22;;;;;;;11.27;2.70;;;;;;;12.59;91.52;101211.00;5087589;28;20040;-73
2021/09/29 08:22:59;;;;;;;9.73;2.70;;;;;;;12.82;91.43;101216.56;5069843;28;20052;-73
2021/09/29 08:25:58;;;;;;;11.88;3.38;;;;;;;12.70;91.86;101214.41;5087708;28;20143;-72
2021/09/29 08:28:34;;;;;;;14.85;2.92;;;;;;;12.80;91.24;101209.72;5088570;28;20036;-72
2021/09/29 08:31:09;;;;;;;11.13;3.00;;;;;;;13.31;90.25;101199.69;5073022;28;20036;-72
2021/09/29 08:36:27;;;;;;;12.05;2.90;;;;;;;13.80;86.55;101178.13;5090837;28;20356;-72
2021/09/29 08:38:57;;;;;;;10.77;3.30;;;;;;;14.83;84.71;101177.06;5056568;28;20134;-72
2021/09/29 08:44:21;;;;;;;9.68;3.15;;;;;;;14.43;82.94;101154.81;5091000;28;20181;-72
2021/09/29 09:16:40;;;;;;;12.98;4.22;;;;;;;14.87;81.58;101118.44;5072653;28;20085;-72
2021/09/29 09:19:08;;;;;;;9.00;3.25;;;;;;;14.29;84.25;101120.69;5090031;28;20046;-72
2021/09/29 09:21:41;;;;;;;12.85;2.97;;;;;;;14.53;85.32;101127.72;5072404;28;20036;-72
2021/09/29 09:24:21;;;;;;;8.55;3.03;;;;;;;14.59;84.05;101113.63;5090017;28;20547;-72
2021/09/29 09:27:07;;;;;;;7.65;2.88;;;;;;;14.39;85.37;101123.97;5090056;28;20031;-72
2021/09/29 09:29:53;;;;;;;12.20;4.07;;;;;;;14.17;85.98;101119.41;5089731;28;20043;-73
2021/09/29 09:32:23;;;;;;;11.40;4.07;;;;;;;14.05;87.53;101117.13;5089704;28;20097;-73
2021/09/29 09:35:11;;;;;;;8.57;3.63;;;;;;;14.27;87.79;101125.38;5071984;28;20035;-73
2021/09/29 09:37:39;;;;;;;5.13;2.88;;;;;;;14.56;86.01;101119.31;5089956;28;20043;-72
2021/09/29 09:40:10;;;;;;;14.02;4.20;;;;;;;14.26;86.36;101113.81;5071332;28;20036;-72
2021/09/29 09:42:40;;;;;;;17.70;5.05;;;;;;;13.86;88.11;101118.41;5090018;28;20039;-72
2021/09/29 09:45:06;;;;;;;10.52;3.60;;;;;;;13.86;88.77;101115.72;5071825;28;20036;-72
2021/09/29 09:47:46;;;;;;;12.07;4.22;;;;;;;14.19;88.49;101118.22;5089928;28;20433;-72
2021/09/29 09:50:23;;;;;;;14.07;3.85;;;;;;;14.39;88.15;101115.91;5089495;28;20047;-73
2021/09/29 09:52:49;;;;;;;13.02;3.83;;;;;;;14.45;87.29;101114.38;5088889;28;20353;-73
2021/09/29 09:55:16;;;;;;;15.43;4.43;;;;;;;14.29;87.54;101100.03;5088167;28;20035;-73
2021/09/29 09:57:43;;;;;;;9.32;4.03;;;;;;;14.43;88.64;101108.31;5088167;28;20027;-73
2021/09/29 10:00:11;;;;;;;14.25;5.13;;;;;;;14.42;88.77;101117.38;5070476;28;20470;-72
2021/09/29 10:02:43;;;;;;;14.38;4.13;;;;;;;14.59;87.26;101100.19;5069656;28;20115;-73
2021/09/29 10:05:11;;;;;;;15.73;3.97;;;;;;;14.40;86.67;101093.41;5052321;28;20435;-72
2021/09/29 10:07:37;;;;;;;11.52;4.10;;;;;;;14.60;86.75;101091.09;5069096;28;20035;-73
2021/09/29 10:10:13;;;;;;;8.48;4.72;;;;;;;14.85;85.88;101098.97;5068653;28;20036;-72
2021/09/29 10:22:48;;;;;;;11.00;4.60;;;;;;;14.49;85.72;101089.66;5086751;28;20043;-72
2021/09/29 10:26:23;;;;;;;14.95;5.07;;;;;;;14.41;86.34;101086.19;5086399;28;20031;-72
2021/09/29 10:28:49;;;;;;;9.57;4.90;;;;;;;14.74;86.25;101097.53;5086385;28;20040;-73
2021/09/29 10:34:06;;;;;;;10.60;4.88;;;;;;;14.44;87.13;101091.19;5086455;28;19912;-73
2021/09/29 10:36:45;;;;;;;11.95;5.28;;;;;;;14.41;87.43;101097.75;5086087;28;20108;-72
2021/09/29 10:42:52;;;;;;;12.88;4.93;;;;;;;14.23;88.09;101087.28;5086214;28;20113;-72
2021/09/29 11:03:01;;;;;;;16.08;6.75;;;;;;;15.20;85.38;101070.53;5070600;28;20067;-73
2021/09/29 11:27:15;;;;;;;7.10;4.35;;;;;;;15.57;84.47;101068.78;5088409;28;20032;-72
2021/09/29 11:28:59;;;;;;;14.48;5.97;;;;;;;14.71;86.81;101044.16;5087922;28;20119;-73
2021/09/29 11:31:31;;;;;;;11.00;4.90;;;;;;;14.64;87.86;101052.09;5088488;28;20170;-73
2021/09/29 11:34:09;;;;;;;14.75;5.80;;;;;;;14.90;87.19;101053.53;5088019;28;20428;-73
2021/09/29 11:36:55;;;;;;;10.02;4.65;;;;;;;14.64;87.00;101052.09;5088321;28;20662;-72
2021/09/29 12:09:52;;;;;;;13.85;7.18;;;;;;;16.20;83.27;101002.59;5091298;28;20039;-73
2021/09/29 12:12:26;;;;;;;14.07;7.13;;;;;;;15.96;80.41;100968.78;5091869;28;20369;-72
2021/09/29 12:14:58;;;;;;;17.50;7.47;;;;;;;15.79;83.26;100989.75;5090624;28;20047;-73
2021/09/29 12:17:30;;;;;;;12.85;6.97;;;;;;;15.58;83.16;100985.13;5091588;28;20036;-73
2021/09/29 12:19:58;;;;;;;15.48;7.20;;;;;;;15.48;84.07;100998.06;5073561;28;20078;-73
2021/09/29 12:22:26;;;;;;;12.02;7.93;;;;;;;15.05;85.65;100995.22;5091713;28;20027;-73
2021/09/29 12:25:08;;;;;;;12.07;7.65;;;;;;;15.24;86.10;100998.38;5091351;28;20055;-72
2021/09/29 12:27:39;;;;;;;17.67;9.07;;;;;;;15.25;84.80;100987.44;5073557;28;20376;-72
2021/09/29 12:30:21;;;;;;;14.70;9.02;;;;;;;15.10;85.88;100995.53;5091307;28;20036;-72
2021/09/29 12:36:00;;;;;;;13.20;7.75;;;;;;;15.93;82.10;100969.19;5091078;28;20453;-72
2021/09/29 12:38:37;;;;;;;15.70;7.13;;;;;;;16.04;82.11;100962.47;5091529;28;20066;-72
2021/09/29 12:41:04;;;;;;;15.00;7.05;;;;;;;16.60;81.11;100954.41;5072908;28;20036;-73
2021/09/29 12:43:30;;;;;;;12.38;6.70;;;;;;;16.99;80.84;100947.59;5091478;28;20035;-72
2021/09/29 12:45:55;;;;;;;14.47;7.03;;;;;;;16.18;81.34;100937.31;5073032;28;20415;-72
2021/09/29 12:48:27;;;;;;;15.07;7.00;;;;;;;16.54;81.23;100939.00;5073372;28;20281;-72
2021/09/29 12:50:58;;;;;;;10.75;6.45;;;;;;;16.09;82.88;100951.09;5090764;28;20358;-72
2021/09/29 12:53:36;;;;;;;12.77;7.50;;;;;;;15.56;83.85;100937.91;5073476;28;20039;-72
2021/09/29 12:56:12;;;;;;;11.98;6.50;;;;;;;16.19;83.85;100949.72;5072949;28;20119;-73
2021/09/29 12:58:38;;;;;;;13.30;7.93;;;;;;;15.37;84.92;100947.44;5091038;28;20036;-73
2021/09/29 13:01:03;;;;;;;12.20;6.13;;;;;;;15.63;85.58;100953.09;5090879;28;20032;-73
2021/09/29 13:03:29;;;;;;;12.65;6.05;;;;;;;15.68;85.43;100954.41;5073115;28;20135;-72
2021/09/29 13:05:57;;;;;;;12.77;6.38;;;;;;;15.58;83.50;100930.50;5090226;28;20039;-72
2021/09/29 13:08:24;;;;;;;11.00;6.53;;;;;;;15.61;84.07;100944.38;5090541;28;20040;-73
2021/09/29 13:10:50;;;;;;;9.57;6.60;;;;;;;15.74;84.64;100946.41;5072817;28;20099;-73
2021/09/29 13:13:16;;;;;;;9.00;5.55;;;;;;;15.94;83.72;100932.31;5072521;28;20451;-72
2021/09/29 13:15:46;;;;;;;;;;;;;;;15.57;85.06;100935.03;5072510;28;20036;-72
2021/09/29 13:18:59;;;;;;;14.82;6.82;;;;;;;16.42;82.23;100914.47;5090469;28;19912;-72
2021/09/29 13:21:30;;;;;;;10.80;5.93;;;;;;;16.88;81.24;100916.66;5081810;28;20448;-72
2021/09/29 13:24:08;;;;;;;11.63;6.53;;;;;;;16.68;79.64;100886.03;5088785;28;20143;-72
2021/09/29 13:37:16;;;;;;;10.50;5.75;;;;;;;16.33;80.08;100883.31;5090207;28;20055;-72
2021/09/29 13:39:44;;;;;;;9.23;5.72;;;;;;;16.41;80.60;100898.50;5089736;28;20048;-72
2021/09/29 13:42:09;;;;;;;8.38;5.55;;;;;;;16.87;79.03;100884.47;5090122;28;20040;-72